sensor_id;sensor_type;location;lat;lon;timestamp;P1;durP1;ratioP1;P2;durP2;ratioP2
15502;SDS011;7853;52.186;5.948;2023-07-30T00:04:26;4.04;;;1.95;;
15502;SDS011;7853;52.186;5.948;2023-07-30T00:04:26;6.04;;;1.64;;
15502;SDS011;7853;52.186;5.948;2023-07-30T00:04:26;5.27;;;1.84;;
15502;SDS011;7853;52.186;5.948;2023-07-30T00:04:26;4.83;;;1.78;;
15502;SDS011;7853;52.186;5.948;2023-07-30T00:05:28;3.44;;;1.71;;
15502;SDS011;7853;52.186;5.948;2023-07-30T00:06:31;5.65;;;2.12;;
15502;SDS011;7853;52.186;5.948;2023-07-30T00:07:33;4.20;;;1.86;;
15502;SDS011;7853;52.186;5.948;2023-07-30T00:08:34;3.98;;;1.87;;
15502;SDS011;7853;52.186;5.948;2023-07-30T00:09:35;7.27;;;2.15;;
15502;SDS011;7853;52.186;5.948;2023-07-30T00:10:35;6.03;;;1.89;;
15502;SDS011;7853;52.186;5.948;2023-07-30T00:11:35;4.67;;;1.84;;
15502;SDS011;7853;52.186;5.948;2023-07-30T00:12:35;5.32;;;2.01;;
15502;SDS011;7853;52.186;5.948;2023-07-30T00:13:35;5.27;;;2.03;;
15502;SDS011;7853;52.186;5.948;2023-07-30T00:14:35;4.91;;;1.66;;
15502;SDS011;7853;52.186;5.948;2023-07-30T00:15:35;4.71;;;1.58;;
15502;SDS011;7853;52.186;5.948;2023-07-30T00:16:35;4.23;;;1.66;;
15502;SDS011;7853;52.186;5.948;2023-07-30T00:17:35;5.06;;;1.68;;
15502;SDS011;7853;52.186;5.948;2023-07-30T00:18:35;6.05;;;1.92;;
15502;SDS011;7853;52.186;5.948;2023-07-30T00:19:35;6.32;;;2.06;;
15502;SDS011;7853;52.186;5.948;2023-07-30T00:20:35;3.88;;;1.70;;
15502;SDS011;7853;52.186;5.948;2023-07-30T00:21:35;5.49;;;1.90;;
15502;SDS011;7853;52.186;5.948;2023-07-30T00:22:35;5.04;;;1.90;;
15502;SDS011;7853;52.186;5.948;2023-07-30T00:23:35;3.86;;;1.67;;
15502;SDS011;7853;52.186;5.948;2023-07-30T00:24:35;5.14;;;2.10;;
15502;SDS011;7853;52.186;5.948;2023-07-30T00:25:35;5.75;;;1.99;;
15502;SDS011;7853;52.186;5.948;2023-07-30T00:26:35;5.40;;;2.26;;
15502;SDS011;7853;52.186;5.948;2023-07-30T00:27:35;5.40;;;2.05;;
15502;SDS011;7853;52.186;5.948;2023-07-30T00:28:35;3.23;;;1.79;;
15502;SDS011;7853;52.186;5.948;2023-07-30T00:29:35;5.19;;;2.05;;
15502;SDS011;7853;52.186;5.948;2023-07-30T00:30:35;5.35;;;2.12;;
15502;SDS011;7853;52.186;5.948;2023-07-30T00:31:35;4.95;;;1.86;;
15502;SDS011;7853;52.186;5.948;2023-07-30T00:32:35;4.28;;;2.07;;
15502;SDS011;7853;52.186;5.948;2023-07-30T00:33:35;4.70;;;2.10;;
15502;SDS011;7853;52.186;5.948;2023-07-30T00:34:35;5.19;;;2.04;;
15502;SDS011;7853;52.186;5.948;2023-07-30T00:35:35;4.05;;;1.97;;
15502;SDS011;7853;52.186;5.948;2023-07-30T00:36:35;4.15;;;2.09;;
15502;SDS011;7853;52.186;5.948;2023-07-30T00:37:35;4.96;;;1.80;;
15502;SDS011;7853;52.186;5.948;2023-07-30T00:38:35;4.13;;;1.91;;
15502;SDS011;7853;52.186;5.948;2023-07-30T00:39:35;5.03;;;2.14;;
15502;SDS011;7853;52.186;5.948;2023-07-30T00:40:39;6.06;;;2.29;;
15502;SDS011;7853;52.186;5.948;2023-07-30T00:41:35;4.03;;;2.13;;
15502;SDS011;7853;52.186;5.948;2023-07-30T00:42:35;6.30;;;2.21;;
15502;SDS011;7853;52.186;5.948;2023-07-30T00:43:35;5.86;;;2.14;;
15502;SDS011;7853;52.186;5.948;2023-07-30T00:44:35;5.70;;;2.06;;
15502;SDS011;7853;52.186;5.948;2023-07-30T00:45:35;6.34;;;2.01;;
15502;SDS011;7853;52.186;5.948;2023-07-30T00:46:35;4.83;;;1.95;;
15502;SDS011;7853;52.186;5.948;2023-07-30T00:47:35;4.50;;;2.33;;
15502;SDS011;7853;52.186;5.948;2023-07-30T00:48:35;5.50;;;2.38;;
15502;SDS011;7853;52.186;5.948;2023-07-30T00:49:35;5.28;;;1.94;;
15502;SDS011;7853;52.186;5.948;2023-07-30T00:50:35;5.29;;;2.00;;
15502;SDS011;7853;52.186;5.948;2023-07-30T00:51:35;4.41;;;2.32;;
15502;SDS011;7853;52.186;5.948;2023-07-30T00:52:35;4.54;;;1.93;;
15502;SDS011;7853;52.186;5.948;2023-07-30T00:53:35;3.59;;;1.90;;
15502;SDS011;7853;52.186;5.948;2023-07-30T00:54:35;6.60;;;1.93;;
15502;SDS011;7853;52.186;5.948;2023-07-30T00:55:35;5.21;;;1.98;;
15502;SDS011;7853;52.186;5.948;2023-07-30T00:56:35;5.03;;;2.22;;
15502;SDS011;7853;52.186;5.948;2023-07-30T00:57:35;4.41;;;1.95;;
15502;SDS011;7853;52.186;5.948;2023-07-30T00:58:35;5.32;;;2.20;;
15502;SDS011;7853;52.186;5.948;2023-07-30T00:59:35;5.70;;;1.97;;
15502;SDS011;7853;52.186;5.948;2023-07-30T01:00:35;6.12;;;2.17;;
15502;SDS011;7853;52.186;5.948;2023-07-30T01:01:35;6.05;;;2.10;;
15502;SDS011;7853;52.186;5.948;2023-07-30T01:02:35;5.55;;;2.08;;
15502;SDS011;7853;52.186;5.948;2023-07-30T01:03:35;4.42;;;1.87;;
15502;SDS011;7853;52.186;5.948;2023-07-30T01:04:35;3.19;;;1.73;;
15502;SDS011;7853;52.186;5.948;2023-07-30T01:05:35;5.83;;;2.04;;
15502;SDS011;7853;52.186;5.948;2023-07-30T01:06:35;5.76;;;2.21;;
15502;SDS011;7853;52.186;5.948;2023-07-30T01:07:35;5.23;;;2.08;;
15502;SDS011;7853;52.186;5.948;2023-07-30T01:08:35;4.87;;;1.96;;
15502;SDS011;7853;52.186;5.948;2023-07-30T01:09:35;5.67;;;2.08;;
15502;SDS011;7853;52.186;5.948;2023-07-30T01:10:35;6.90;;;2.24;;
15502;SDS011;7853;52.186;5.948;2023-07-30T01:11:35;5.53;;;2.26;;
15502;SDS011;7853;52.186;5.948;2023-07-30T01:12:35;6.40;;;2.30;;
15502;SDS011;7853;52.186;5.948;2023-07-30T01:13:35;4.91;;;2.16;;
15502;SDS011;7853;52.186;5.948;2023-07-30T01:14:35;4.10;;;1.98;;
15502;SDS011;7853;52.186;5.948;2023-07-30T01:15:35;4.08;;;2.02;;
15502;SDS011;7853;52.186;5.948;2023-07-30T01:16:35;5.33;;;2.04;;
15502;SDS011;7853;52.186;5.948;2023-07-30T01:17:35;5.01;;;2.15;;
15502;SDS011;7853;52.186;5.948;2023-07-30T01:18:35;3.48;;;2.15;;
15502;SDS011;7853;52.186;5.948;2023-07-30T01:19:35;3.88;;;1.85;;
15502;SDS011;7853;52.186;5.948;2023-07-30T01:20:35;3.45;;;1.87;;
15502;SDS011;7853;52.186;5.948;2023-07-30T01:21:35;4.89;;;2.23;;
15502;SDS011;7853;52.186;5.948;2023-07-30T01:22:35;6.01;;;1.97;;
15502;SDS011;7853;52.186;5.948;2023-07-30T01:23:35;5.28;;;2.09;;
15502;SDS011;7853;52.186;5.948;2023-07-30T01:24:35;3.78;;;1.66;;
15502;SDS011;7853;52.186;5.948;2023-07-30T01:25:35;3.37;;;1.75;;
15502;SDS011;7853;52.186;5.948;2023-07-30T01:26:37;5.53;;;2.39;;
15502;SDS011;7853;52.186;5.948;2023-07-30T01:27:36;4.45;;;2.06;;
15502;SDS011;7853;52.186;5.948;2023-07-30T01:28:36;4.22;;;2.11;;
15502;SDS011;7853;52.186;5.948;2023-07-30T01:29:37;4.66;;;1.97;;
15502;SDS011;7853;52.186;5.948;2023-07-30T01:30:37;5.10;;;2.40;;
15502;SDS011;7853;52.186;5.948;2023-07-30T01:31:35;5.69;;;2.17;;
15502;SDS011;7853;52.186;5.948;2023-07-30T01:32:35;4.86;;;2.28;;
15502;SDS011;7853;52.186;5.948;2023-07-30T01:33:35;5.61;;;2.19;;
15502;SDS011;7853;52.186;5.948;2023-07-30T01:34:35;5.87;;;2.10;;
15502;SDS011;7853;52.186;5.948;2023-07-30T01:35:35;4.92;;;1.98;;
15502;SDS011;7853;52.186;5.948;2023-07-30T01:36:35;3.59;;;2.05;;
15502;SDS011;7853;52.186;5.948;2023-07-30T01:37:35;5.70;;;2.39;;
15502;SDS011;7853;52.186;5.948;2023-07-30T01:38:35;5.20;;;2.44;;
15502;SDS011;7853;52.186;5.948;2023-07-30T01:39:35;5.01;;;2.28;;
15502;SDS011;7853;52.186;5.948;2023-07-30T01:40:35;5.75;;;2.06;;
15502;SDS011;7853;52.186;5.948;2023-07-30T01:41:35;5.11;;;2.11;;
15502;SDS011;7853;52.186;5.948;2023-07-30T01:42:35;4.74;;;2.04;;
15502;SDS011;7853;52.186;5.948;2023-07-30T01:43:35;4.59;;;2.06;;
15502;SDS011;7853;52.186;5.948;2023-07-30T01:44:35;5.37;;;2.07;;
15502;SDS011;7853;52.186;5.948;2023-07-30T01:45:35;3.69;;;1.79;;
15502;SDS011;7853;52.186;5.948;2023-07-30T01:46:35;5.09;;;1.88;;
15502;SDS011;7853;52.186;5.948;2023-07-30T01:47:35;4.91;;;1.83;;
15502;SDS011;7853;52.186;5.948;2023-07-30T01:48:35;3.60;;;1.89;;
15502;SDS011;7853;52.186;5.948;2023-07-30T01:49:35;5.09;;;2.01;;
15502;SDS011;7853;52.186;5.948;2023-07-30T01:50:35;5.01;;;2.24;;
15502;SDS011;7853;52.186;5.948;2023-07-30T01:51:35;3.96;;;1.83;;
15502;SDS011;7853;52.186;5.948;2023-07-30T01:52:35;4.62;;;1.86;;
15502;SDS011;7853;52.186;5.948;2023-07-30T01:53:35;6.30;;;2.41;;
15502;SDS011;7853;52.186;5.948;2023-07-30T01:54:35;5.19;;;2.21;;
15502;SDS011;7853;52.186;5.948;2023-07-30T01:55:35;3.88;;;2.13;;
15502;SDS011;7853;52.186;5.948;2023-07-30T01:56:35;4.03;;;1.93;;
15502;SDS011;7853;52.186;5.948;2023-07-30T01:57:35;4.81;;;1.98;;
15502;SDS011;7853;52.186;5.948;2023-07-30T01:58:35;5.66;;;2.14;;
15502;SDS011;7853;52.186;5.948;2023-07-30T01:59:35;5.06;;;1.84;;
15502;SDS011;7853;52.186;5.948;2023-07-30T02:00:35;5.26;;;2.03;;
15502;SDS011;7853;52.186;5.948;2023-07-30T02:01:35;4.54;;;1.79;;
15502;SDS011;7853;52.186;5.948;2023-07-30T02:02:35;5.53;;;2.24;;
15502;SDS011;7853;52.186;5.948;2023-07-30T02:03:35;4.67;;;1.87;;
15502;SDS011;7853;52.186;5.948;2023-07-30T02:04:35;5.17;;;1.63;;
15502;SDS011;7853;52.186;5.948;2023-07-30T02:05:35;4.26;;;1.84;;
15502;SDS011;7853;52.186;5.948;2023-07-30T02:06:35;4.23;;;1.74;;
15502;SDS011;7853;52.186;5.948;2023-07-30T02:07:35;5.91;;;2.14;;
15502;SDS011;7853;52.186;5.948;2023-07-30T02:08:35;4.64;;;1.94;;
15502;SDS011;7853;52.186;5.948;2023-07-30T02:09:35;4.88;;;1.97;;
15502;SDS011;7853;52.186;5.948;2023-07-30T02:10:35;4.32;;;1.93;;
15502;SDS011;7853;52.186;5.948;2023-07-30T02:11:35;4.93;;;2.06;;
15502;SDS011;7853;52.186;5.948;2023-07-30T02:12:35;6.54;;;2.09;;
15502;SDS011;7853;52.186;5.948;2023-07-30T02:13:35;4.16;;;1.92;;
15502;SDS011;7853;52.186;5.948;2023-07-30T02:14:35;5.21;;;1.98;;
15502;SDS011;7853;52.186;5.948;2023-07-30T02:15:39;4.33;;;1.99;;
15502;SDS011;7853;52.186;5.948;2023-07-30T02:16:35;5.07;;;1.77;;
15502;SDS011;7853;52.186;5.948;2023-07-30T02:17:35;5.46;;;1.77;;
15502;SDS011;7853;52.186;5.948;2023-07-30T02:18:35;6.59;;;2.13;;
15502;SDS011;7853;52.186;5.948;2023-07-30T02:19:35;4.66;;;1.83;;
15502;SDS011;7853;52.186;5.948;2023-07-30T02:20:35;6.06;;;2.03;;
15502;SDS011;7853;52.186;5.948;2023-07-30T02:21:35;4.40;;;1.81;;
15502;SDS011;7853;52.186;5.948;2023-07-30T02:22:35;6.95;;;2.32;;
15502;SDS011;7853;52.186;5.948;2023-07-30T02:23:35;4.83;;;1.70;;
15502;SDS011;7853;52.186;5.948;2023-07-30T02:24:35;6.70;;;2.13;;
15502;SDS011;7853;52.186;5.948;2023-07-30T02:25:35;4.64;;;1.88;;
15502;SDS011;7853;52.186;5.948;2023-07-30T02:26:35;3.75;;;1.82;;
15502;SDS011;7853;52.186;5.948;2023-07-30T02:27:35;4.90;;;1.88;;
15502;SDS011;7853;52.186;5.948;2023-07-30T02:28:35;4.41;;;1.62;;
15502;SDS011;7853;52.186;5.948;2023-07-30T02:29:35;3.74;;;1.51;;
15502;SDS011;7853;52.186;5.948;2023-07-30T02:30:35;4.17;;;2.17;;
15502;SDS011;7853;52.186;5.948;2023-07-30T02:31:35;4.43;;;1.60;;
15502;SDS011;7853;52.186;5.948;2023-07-30T02:32:35;4.44;;;1.82;;
15502;SDS011;7853;52.186;5.948;2023-07-30T02:33:35;3.85;;;2.14;;
15502;SDS011;7853;52.186;5.948;2023-07-30T02:34:35;5.43;;;2.08;;
15502;SDS011;7853;52.186;5.948;2023-07-30T02:35:35;4.89;;;2.14;;
15502;SDS011;7853;52.186;5.948;2023-07-30T02:36:35;3.91;;;1.75;;
15502;SDS011;7853;52.186;5.948;2023-07-30T02:37:35;5.92;;;1.93;;
15502;SDS011;7853;52.186;5.948;2023-07-30T02:38:35;3.68;;;1.83;;
15502;SDS011;7853;52.186;5.948;2023-07-30T02:39:35;4.61;;;2.34;;
15502;SDS011;7853;52.186;5.948;2023-07-30T02:40:35;3.48;;;1.69;;
15502;SDS011;7853;52.186;5.948;2023-07-30T02:41:35;3.66;;;1.53;;
15502;SDS011;7853;52.186;5.948;2023-07-30T02:42:35;4.71;;;1.78;;
15502;SDS011;7853;52.186;5.948;2023-07-30T02:43:35;6.93;;;2.23;;
15502;SDS011;7853;52.186;5.948;2023-07-30T02:44:35;5.77;;;2.04;;
15502;SDS011;7853;52.186;5.948;2023-07-30T02:45:35;5.58;;;1.88;;
15502;SDS011;7853;52.186;5.948;2023-07-30T02:46:35;5.13;;;1.89;;
15502;SDS011;7853;52.186;5.948;2023-07-30T02:47:35;3.86;;;1.83;;
15502;SDS011;7853;52.186;5.948;2023-07-30T02:48:35;5.09;;;1.91;;
15502;SDS011;7853;52.186;5.948;2023-07-30T02:49:35;4.99;;;1.88;;
15502;SDS011;7853;52.186;5.948;2023-07-30T02:50:35;5.88;;;1.82;;
15502;SDS011;7853;52.186;5.948;2023-07-30T02:51:35;5.21;;;2.11;;
15502;SDS011;7853;52.186;5.948;2023-07-30T02:52:35;3.51;;;1.79;;
15502;SDS011;7853;52.186;5.948;2023-07-30T02:53:35;6.29;;;1.96;;
15502;SDS011;7853;52.186;5.948;2023-07-30T02:54:35;5.09;;;1.83;;
15502;SDS011;7853;52.186;5.948;2023-07-30T02:55:35;7.28;;;2.01;;
15502;SDS011;7853;52.186;5.948;2023-07-30T02:56:35;4.69;;;1.99;;
15502;SDS011;7853;52.186;5.948;2023-07-30T02:57:35;4.47;;;1.87;;
15502;SDS011;7853;52.186;5.948;2023-07-30T02:58:35;4.53;;;1.76;;
15502;SDS011;7853;52.186;5.948;2023-07-30T02:59:35;5.51;;;1.88;;
15502;SDS011;7853;52.186;5.948;2023-07-30T03:00:35;5.12;;;2.05;;
15502;SDS011;7853;52.186;5.948;2023-07-30T03:01:35;7.67;;;2.43;;
15502;SDS011;7853;52.186;5.948;2023-07-30T03:02:35;5.66;;;2.09;;
15502;SDS011;7853;52.186;5.948;2023-07-30T03:03:35;4.88;;;1.93;;
15502;SDS011;7853;52.186;5.948;2023-07-30T03:04:35;6.28;;;2.03;;
15502;SDS011;7853;52.186;5.948;2023-07-30T03:05:35;6.05;;;2.27;;
15502;SDS011;7853;52.186;5.948;2023-07-30T03:06:35;8.33;;;2.04;;
15502;SDS011;7853;52.186;5.948;2023-07-30T03:07:35;4.31;;;1.86;;
15502;SDS011;7853;52.186;5.948;2023-07-30T03:08:35;5.72;;;1.93;;
15502;SDS011;7853;52.186;5.948;2023-07-30T03:09:35;4.87;;;2.11;;
15502;SDS011;7853;52.186;5.948;2023-07-30T03:10:35;6.20;;;2.07;;
15502;SDS011;7853;52.186;5.948;2023-07-30T03:11:35;5.36;;;2.01;;
15502;SDS011;7853;52.186;5.948;2023-07-30T03:12:35;4.71;;;1.73;;
15502;SDS011;7853;52.186;5.948;2023-07-30T03:13:35;4.12;;;2.06;;
15502;SDS011;7853;52.186;5.948;2023-07-30T03:14:35;4.13;;;2.02;;
15502;SDS011;7853;52.186;5.948;2023-07-30T03:15:35;4.42;;;1.85;;
15502;SDS011;7853;52.186;5.948;2023-07-30T03:16:35;6.51;;;1.89;;
15502;SDS011;7853;52.186;5.948;2023-07-30T03:17:35;7.17;;;2.58;;
15502;SDS011;7853;52.186;5.948;2023-07-30T03:18:35;5.98;;;1.99;;
15502;SDS011;7853;52.186;5.948;2023-07-30T03:19:35;7.02;;;2.19;;
15502;SDS011;7853;52.186;5.948;2023-07-30T03:20:35;4.32;;;1.97;;
15502;SDS011;7853;52.186;5.948;2023-07-30T03:21:35;4.99;;;1.96;;
15502;SDS011;7853;52.186;5.948;2023-07-30T03:22:35;6.83;;;2.06;;
15502;SDS011;7853;52.186;5.948;2023-07-30T03:23:35;5.93;;;1.99;;
15502;SDS011;7853;52.186;5.948;2023-07-30T03:24:35;5.80;;;2.13;;
15502;SDS011;7853;52.186;5.948;2023-07-30T03:25:35;5.60;;;1.85;;
15502;SDS011;7853;52.186;5.948;2023-07-30T03:26:35;7.12;;;2.19;;
15502;SDS011;7853;52.186;5.948;2023-07-30T03:27:35;6.25;;;2.27;;
15502;SDS011;7853;52.186;5.948;2023-07-30T03:28:35;7.95;;;2.54;;
15502;SDS011;7853;52.186;5.948;2023-07-30T03:29:35;6.15;;;2.23;;
15502;SDS011;7853;52.186;5.948;2023-07-30T03:30:35;5.75;;;2.01;;
15502;SDS011;7853;52.186;5.948;2023-07-30T03:31:35;5.36;;;2.09;;
15502;SDS011;7853;52.186;5.948;2023-07-30T03:32:35;4.82;;;1.94;;
15502;SDS011;7853;52.186;5.948;2023-07-30T03:33:35;6.14;;;2.15;;
15502;SDS011;7853;52.186;5.948;2023-07-30T03:34:35;5.44;;;1.95;;
15502;SDS011;7853;52.186;5.948;2023-07-30T03:35:35;5.02;;;2.19;;
15502;SDS011;7853;52.186;5.948;2023-07-30T03:36:35;5.19;;;2.30;;
15502;SDS011;7853;52.186;5.948;2023-07-30T03:37:35;5.86;;;1.94;;
15502;SDS011;7853;52.186;5.948;2023-07-30T03:38:35;7.58;;;2.03;;
15502;SDS011;7853;52.186;5.948;2023-07-30T03:39:35;6.16;;;1.98;;
15502;SDS011;7853;52.186;5.948;2023-07-30T03:40:35;5.43;;;1.84;;
15502;SDS011;7853;52.186;5.948;2023-07-30T03:41:35;5.79;;;2.21;;
15502;SDS011;7853;52.186;5.948;2023-07-30T03:42:35;5.76;;;2.05;;
15502;SDS011;7853;52.186;5.948;2023-07-30T03:43:35;6.69;;;2.33;;
15502;SDS011;7853;52.186;5.948;2023-07-30T03:44:35;6.95;;;2.30;;
15502;SDS011;7853;52.186;5.948;2023-07-30T03:45:35;6.08;;;2.45;;
15502;SDS011;7853;52.186;5.948;2023-07-30T03:46:35;7.36;;;2.43;;
15502;SDS011;7853;52.186;5.948;2023-07-30T03:47:35;6.26;;;2.25;;
15502;SDS011;7853;52.186;5.948;2023-07-30T03:48:35;7.33;;;2.50;;
15502;SDS011;7853;52.186;5.948;2023-07-30T03:49:35;6.40;;;2.01;;
15502;SDS011;7853;52.186;5.948;2023-07-30T03:50:35;5.41;;;2.00;;
15502;SDS011;7853;52.186;5.948;2023-07-30T03:51:35;7.11;;;2.25;;
15502;SDS011;7853;52.186;5.948;2023-07-30T03:52:35;8.49;;;2.39;;
15502;SDS011;7853;52.186;5.948;2023-07-30T03:53:35;6.01;;;2.39;;
15502;SDS011;7853;52.186;5.948;2023-07-30T03:54:35;4.96;;;2.01;;
15502;SDS011;7853;52.186;5.948;2023-07-30T03:55:35;4.65;;;1.94;;
15502;SDS011;7853;52.186;5.948;2023-07-30T03:56:35;6.99;;;2.27;;
15502;SDS011;7853;52.186;5.948;2023-07-30T03:57:35;5.10;;;2.07;;
15502;SDS011;7853;52.186;5.948;2023-07-30T03:58:35;7.60;;;2.75;;
15502;SDS011;7853;52.186;5.948;2023-07-30T03:59:35;9.95;;;2.65;;
15502;SDS011;7853;52.186;5.948;2023-07-30T04:00:35;8.49;;;2.51;;
15502;SDS011;7853;52.186;5.948;2023-07-30T04:01:35;7.97;;;2.83;;
15502;SDS011;7853;52.186;5.948;2023-07-30T04:02:35;7.89;;;2.56;;
15502;SDS011;7853;52.186;5.948;2023-07-30T04:03:35;6.73;;;2.60;;
15502;SDS011;7853;52.186;5.948;2023-07-30T04:04:35;6.18;;;2.59;;
15502;SDS011;7853;52.186;5.948;2023-07-30T04:05:35;7.88;;;2.67;;
15502;SDS011;7853;52.186;5.948;2023-07-30T04:06:35;9.49;;;2.84;;
15502;SDS011;7853;52.186;5.948;2023-07-30T04:07:35;7.77;;;2.81;;
15502;SDS011;7853;52.186;5.948;2023-07-30T04:08:35;9.41;;;2.70;;
15502;SDS011;7853;52.186;5.948;2023-07-30T04:09:35;8.36;;;2.58;;
15502;SDS011;7853;52.186;5.948;2023-07-30T04:10:35;6.67;;;2.17;;
15502;SDS011;7853;52.186;5.948;2023-07-30T04:11:35;6.66;;;2.27;;
15502;SDS011;7853;52.186;5.948;2023-07-30T04:12:35;8.24;;;2.50;;
15502;SDS011;7853;52.186;5.948;2023-07-30T04:13:35;7.09;;;2.60;;
15502;SDS011;7853;52.186;5.948;2023-07-30T04:14:35;6.46;;;2.82;;
15502;SDS011;7853;52.186;5.948;2023-07-30T04:15:35;8.72;;;2.91;;
15502;SDS011;7853;52.186;5.948;2023-07-30T04:16:35;7.56;;;2.62;;
15502;SDS011;7853;52.186;5.948;2023-07-30T04:17:35;9.64;;;3.09;;
15502;SDS011;7853;52.186;5.948;2023-07-30T04:18:35;8.43;;;2.79;;
15502;SDS011;7853;52.186;5.948;2023-07-30T04:19:35;7.76;;;2.57;;
15502;SDS011;7853;52.186;5.948;2023-07-30T04:20:35;7.29;;;2.53;;
15502;SDS011;7853;52.186;5.948;2023-07-30T04:21:35;8.27;;;2.71;;
15502;SDS011;7853;52.186;5.948;2023-07-30T04:22:35;7.65;;;2.49;;
15502;SDS011;7853;52.186;5.948;2023-07-30T04:23:35;7.77;;;2.51;;
15502;SDS011;7853;52.186;5.948;2023-07-30T04:24:35;7.15;;;2.72;;
15502;SDS011;7853;52.186;5.948;2023-07-30T04:25:35;8.71;;;3.00;;
15502;SDS011;7853;52.186;5.948;2023-07-30T04:26:35;9.16;;;2.86;;
15502;SDS011;7853;52.186;5.948;2023-07-30T04:27:35;9.13;;;3.32;;
15502;SDS011;7853;52.186;5.948;2023-07-30T04:28:35;8.48;;;2.74;;
15502;SDS011;7853;52.186;5.948;2023-07-30T04:29:35;8.54;;;2.80;;
15502;SDS011;7853;52.186;5.948;2023-07-30T04:30:35;7.99;;;2.61;;
15502;SDS011;7853;52.186;5.948;2023-07-30T04:31:35;7.96;;;2.65;;
15502;SDS011;7853;52.186;5.948;2023-07-30T04:32:35;9.49;;;3.37;;
15502;SDS011;7853;52.186;5.948;2023-07-30T04:33:35;8.49;;;3.40;;
15502;SDS011;7853;52.186;5.948;2023-07-30T04:34:35;9.54;;;2.99;;
15502;SDS011;7853;52.186;5.948;2023-07-30T04:35:35;7.30;;;2.87;;
15502;SDS011;7853;52.186;5.948;2023-07-30T04:36:35;8.36;;;2.49;;
15502;SDS011;7853;52.186;5.948;2023-07-30T04:37:35;7.37;;;2.91;;
15502;SDS011;7853;52.186;5.948;2023-07-30T04:38:35;9.33;;;3.36;;
15502;SDS011;7853;52.186;5.948;2023-07-30T04:39:35;9.87;;;3.24;;
15502;SDS011;7853;52.186;5.948;2023-07-30T04:40:35;7.75;;;3.14;;
15502;SDS011;7853;52.186;5.948;2023-07-30T04:41:35;9.17;;;2.93;;
15502;SDS011;7853;52.186;5.948;2023-07-30T04:42:35;6.67;;;2.92;;
15502;SDS011;7853;52.186;5.948;2023-07-30T04:43:35;9.35;;;3.56;;
15502;SDS011;7853;52.186;5.948;2023-07-30T04:44:35;9.81;;;2.99;;
15502;SDS011;7853;52.186;5.948;2023-07-30T04:45:35;8.35;;;3.71;;
15502;SDS011;7853;52.186;5.948;2023-07-30T04:46:35;10.07;;;4.01;;
15502;SDS011;7853;52.186;5.948;2023-07-30T04:47:35;12.93;;;4.02;;
15502;SDS011;7853;52.186;5.948;2023-07-30T04:48:36;11.34;;;3.41;;
15502;SDS011;7853;52.186;5.948;2023-07-30T04:49:35;12.35;;;3.66;;
15502;SDS011;7853;52.186;5.948;2023-07-30T04:50:35;9.76;;;3.70;;
15502;SDS011;7853;52.186;5.948;2023-07-30T04:51:35;9.87;;;3.47;;
15502;SDS011;7853;52.186;5.948;2023-07-30T04:52:35;9.93;;;3.76;;
15502;SDS011;7853;52.186;5.948;2023-07-30T04:53:35;10.51;;;3.58;;
15502;SDS011;7853;52.186;5.948;2023-07-30T04:54:35;8.56;;;3.12;;
15502;SDS011;7853;52.186;5.948;2023-07-30T04:55:35;7.63;;;3.28;;
15502;SDS011;7853;52.186;5.948;2023-07-30T04:56:35;11.83;;;3.43;;
15502;SDS011;7853;52.186;5.948;2023-07-30T04:57:35;9.58;;;3.45;;
15502;SDS011;7853;52.186;5.948;2023-07-30T04:58:35;10.72;;;3.80;;
15502;SDS011;7853;52.186;5.948;2023-07-30T04:59:35;8.60;;;3.40;;
15502;SDS011;7853;52.186;5.948;2023-07-30T05:00:35;7.92;;;3.91;;
15502;SDS011;7853;52.186;5.948;2023-07-30T05:01:35;10.87;;;3.83;;
15502;SDS011;7853;52.186;5.948;2023-07-30T05:02:35;9.13;;;3.39;;
15502;SDS011;7853;52.186;5.948;2023-07-30T05:03:35;11.95;;;3.38;;
15502;SDS011;7853;52.186;5.948;2023-07-30T05:04:35;14.41;;;3.97;;
15502;SDS011;7853;52.186;5.948;2023-07-30T05:05:35;10.79;;;3.74;;
15502;SDS011;7853;52.186;5.948;2023-07-30T05:06:35;11.53;;;3.70;;
15502;SDS011;7853;52.186;5.948;2023-07-30T05:07:35;11.87;;;3.58;;
15502;SDS011;7853;52.186;5.948;2023-07-30T05:08:35;11.17;;;3.83;;
15502;SDS011;7853;52.186;5.948;2023-07-30T05:09:35;9.74;;;3.71;;
15502;SDS011;7853;52.186;5.948;2023-07-30T05:10:35;10.59;;;3.99;;
15502;SDS011;7853;52.186;5.948;2023-07-30T05:11:35;10.39;;;4.05;;
15502;SDS011;7853;52.186;5.948;2023-07-30T05:12:35;10.46;;;3.63;;
15502;SDS011;7853;52.186;5.948;2023-07-30T05:13:35;11.37;;;3.84;;
15502;SDS011;7853;52.186;5.948;2023-07-30T05:14:35;11.44;;;3.85;;
15502;SDS011;7853;52.186;5.948;2023-07-30T05:15:35;11.74;;;4.11;;
15502;SDS011;7853;52.186;5.948;2023-07-30T05:16:35;8.37;;;3.26;;
15502;SDS011;7853;52.186;5.948;2023-07-30T05:17:35;11.41;;;3.48;;
15502;SDS011;7853;52.186;5.948;2023-07-30T05:18:35;12.94;;;3.92;;
15502;SDS011;7853;52.186;5.948;2023-07-30T05:19:35;12.85;;;3.70;;
15502;SDS011;7853;52.186;5.948;2023-07-30T05:20:35;11.21;;;3.54;;
15502;SDS011;7853;52.186;5.948;2023-07-30T05:21:35;13.13;;;4.41;;
15502;SDS011;7853;52.186;5.948;2023-07-30T05:22:35;8.50;;;3.11;;
15502;SDS011;7853;52.186;5.948;2023-07-30T05:23:35;8.93;;;3.39;;
15502;SDS011;7853;52.186;5.948;2023-07-30T05:24:35;9.36;;;3.75;;
15502;SDS011;7853;52.186;5.948;2023-07-30T05:25:35;12.61;;;4.02;;
15502;SDS011;7853;52.186;5.948;2023-07-30T05:26:35;13.05;;;4.25;;
15502;SDS011;7853;52.186;5.948;2023-07-30T05:27:35;10.98;;;4.54;;
15502;SDS011;7853;52.186;5.948;2023-07-30T05:28:35;12.65;;;4.32;;
15502;SDS011;7853;52.186;5.948;2023-07-30T05:29:35;9.24;;;3.32;;
15502;SDS011;7853;52.186;5.948;2023-07-30T05:30:35;11.53;;;4.25;;
15502;SDS011;7853;52.186;5.948;2023-07-30T05:31:35;9.83;;;3.64;;
15502;SDS011;7853;52.186;5.948;2023-07-30T05:32:35;9.91;;;3.80;;
15502;SDS011;7853;52.186;5.948;2023-07-30T05:33:35;10.98;;;3.98;;
15502;SDS011;7853;52.186;5.948;2023-07-30T05:34:35;12.60;;;4.08;;
15502;SDS011;7853;52.186;5.948;2023-07-30T05:35:35;9.08;;;3.47;;
15502;SDS011;7853;52.186;5.948;2023-07-30T05:36:35;11.54;;;3.85;;
15502;SDS011;7853;52.186;5.948;2023-07-30T05:37:35;12.67;;;4.73;;
15502;SDS011;7853;52.186;5.948;2023-07-30T05:38:35;9.17;;;3.49;;
15502;SDS011;7853;52.186;5.948;2023-07-30T05:39:35;10.46;;;3.96;;
15502;SDS011;7853;52.186;5.948;2023-07-30T05:40:35;10.63;;;4.41;;
15502;SDS011;7853;52.186;5.948;2023-07-30T05:41:35;9.42;;;3.72;;
15502;SDS011;7853;52.186;5.948;2023-07-30T05:42:35;9.89;;;3.66;;
15502;SDS011;7853;52.186;5.948;2023-07-30T05:43:35;10.73;;;4.32;;
15502;SDS011;7853;52.186;5.948;2023-07-30T05:44:35;12.24;;;3.85;;
15502;SDS011;7853;52.186;5.948;2023-07-30T05:45:35;11.14;;;3.86;;
15502;SDS011;7853;52.186;5.948;2023-07-30T05:46:35;12.19;;;4.59;;
15502;SDS011;7853;52.186;5.948;2023-07-30T05:47:35;9.59;;;3.66;;
15502;SDS011;7853;52.186;5.948;2023-07-30T05:48:35;9.92;;;3.74;;
15502;SDS011;7853;52.186;5.948;2023-07-30T05:49:35;10.90;;;4.06;;
15502;SDS011;7853;52.186;5.948;2023-07-30T05:50:35;10.44;;;4.19;;
15502;SDS011;7853;52.186;5.948;2023-07-30T05:51:35;10.88;;;4.20;;
15502;SDS011;7853;52.186;5.948;2023-07-30T05:52:35;13.38;;;4.00;;
15502;SDS011;7853;52.186;5.948;2023-07-30T05:53:35;9.32;;;3.55;;
15502;SDS011;7853;52.186;5.948;2023-07-30T05:54:35;10.20;;;4.51;;
15502;SDS011;7853;52.186;5.948;2023-07-30T05:55:35;12.54;;;4.27;;
15502;SDS011;7853;52.186;5.948;2023-07-30T05:56:35;13.34;;;4.01;;
15502;SDS011;7853;52.186;5.948;2023-07-30T05:57:35;14.75;;;4.25;;
15502;SDS011;7853;52.186;5.948;2023-07-30T05:58:35;12.74;;;4.11;;
15502;SDS011;7853;52.186;5.948;2023-07-30T05:59:35;12.44;;;4.36;;
15502;SDS011;7853;52.186;5.948;2023-07-30T06:00:35;12.74;;;4.46;;
15502;SDS011;7853;52.186;5.948;2023-07-30T06:01:35;11.56;;;3.88;;
15502;SDS011;7853;52.186;5.948;2023-07-30T06:02:35;12.83;;;3.90;;
15502;SDS011;7853;52.186;5.948;2023-07-30T06:03:35;12.92;;;4.05;;
15502;SDS011;7853;52.186;5.948;2023-07-30T06:04:35;10.96;;;3.82;;
15502;SDS011;7853;52.186;5.948;2023-07-30T06:05:38;12.11;;;4.07;;
15502;SDS011;7853;52.186;5.948;2023-07-30T06:06:35;11.83;;;4.40;;
15502;SDS011;7853;52.186;5.948;2023-07-30T06:07:35;10.17;;;4.64;;